sensor_id;sensor_type;location;lat;lon;timestamp;P1;durP1;ratioP1;P2;durP2;ratioP2
8626;SDS011;4351;51.422;6.794;2023-11-19T00:02:19;5.73;;;4.27;;
8626;SDS011;4351;51.422;6.794;2023-11-19T00:04:48;4.70;;;4.20;;
8626;SDS011;4351;51.422;6.794;2023-11-19T00:07:16;7.70;;;4.47;;
8626;SDS011;4351;51.422;6.794;2023-11-19T00:09:46;5.53;;;3.90;;
8626;SDS011;4351;51.422;6.794;2023-11-19T00:12:14;5.80;;;3.70;;
8626;SDS011;4351;51.422;6.794;2023-11-19T00:14:43;4.23;;;3.70;;
8626;SDS011;4351;51.422;6.794;2023-11-19T00:17:11;6.20;;;4.17;;
8626;SDS011;4351;51.422;6.794;2023-11-19T00:19:38;4.57;;;3.77;;
8626;SDS011;4351;51.422;6.794;2023-11-19T00:22:06;4.80;;;3.63;;
8626;SDS011;4351;51.422;6.794;2023-11-19T00:24:34;5.27;;;4.03;;
8626;SDS011;4351;51.422;6.794;2023-11-19T00:27:02;4.53;;;3.93;;
8626;SDS011;4351;51.422;6.794;2023-11-19T00:29:29;5.57;;;3.80;;
8626;SDS011;4351;51.422;6.794;2023-11-19T00:31:58;6.77;;;3.87;;
8626;SDS011;4351;51.422;6.794;2023-11-19T00:34:26;4.50;;;3.43;;
8626;SDS011;4351;51.422;6.794;2023-11-19T00:36:54;5.30;;;3.50;;
8626;SDS011;4351;51.422;6.794;2023-11-19T00:39:22;5.03;;;3.57;;
8626;SDS011;4351;51.422;6.794;2023-11-19T00:41:50;7.57;;;4.40;;
8626;SDS011;4351;51.422;6.794;2023-11-19T00:44:18;5.53;;;4.23;;
8626;SDS011;4351;51.422;6.794;2023-11-19T00:46:46;8.07;;;4.67;;
8626;SDS011;4351;51.422;6.794;2023-11-19T00:49:16;9.33;;;6.03;;
8626;SDS011;4351;51.422;6.794;2023-11-19T00:51:44;8.43;;;6.17;;
8626;SDS011;4351;51.422;6.794;2023-11-19T00:54:12;8.00;;;6.23;;
8626;SDS011;4351;51.422;6.794;2023-11-19T00:56:40;12.80;;;7.10;;
8626;SDS011;4351;51.422;6.794;2023-11-19T00:59:07;9.33;;;7.30;;
8626;SDS011;4351;51.422;6.794;2023-11-19T01:01:35;10.23;;;7.53;;
8626;SDS011;4351;51.422;6.794;2023-11-19T01:04:03;12.40;;;7.80;;
8626;SDS011;4351;51.422;6.794;2023-11-19T01:06:33;12.13;;;8.00;;
8626;SDS011;4351;51.422;6.794;2023-11-19T01:09:00;8.23;;;7.20;;
8626;SDS011;4351;51.422;6.794;2023-11-19T01:11:28;7.00;;;5.90;;
8626;SDS011;4351;51.422;6.794;2023-11-19T01:13:56;8.10;;;5.70;;
8626;SDS011;4351;51.422;6.794;2023-11-19T01:16:25;8.33;;;6.27;;
8626;SDS011;4351;51.422;6.794;2023-11-19T01:18:53;9.20;;;6.57;;
8626;SDS011;4351;51.422;6.794;2023-11-19T01:21:42;7.87;;;6.33;;
8626;SDS011;4351;51.422;6.794;2023-11-19T01:24:10;7.50;;;6.50;;
8626;SDS011;4351;51.422;6.794;2023-11-19T01:26:39;8.70;;;6.90;;
8626;SDS011;4351;51.422;6.794;2023-11-19T01:29:12;9.87;;;6.67;;
8626;SDS011;4351;51.422;6.794;2023-11-19T01:31:41;7.30;;;6.03;;
8626;SDS011;4351;51.422;6.794;2023-11-19T01:34:09;7.47;;;5.57;;
8626;SDS011;4351;51.422;6.794;2023-11-19T01:36:38;7.17;;;5.50;;
8626;SDS011;4351;51.422;6.794;2023-11-19T01:39:07;9.40;;;5.40;;
8626;SDS011;4351;51.422;6.794;2023-11-19T01:41:34;8.20;;;5.90;;
8626;SDS011;4351;51.422;6.794;2023-11-19T01:44:03;7.43;;;5.77;;
8626;SDS011;4351;51.422;6.794;2023-11-19T01:46:31;7.93;;;5.70;;
8626;SDS011;4351;51.422;6.794;2023-11-19T01:48:59;5.73;;;4.50;;
8626;SDS011;4351;51.422;6.794;2023-11-19T01:51:28;6.33;;;4.23;;
8626;SDS011;4351;51.422;6.794;2023-11-19T01:53:56;4.73;;;3.90;;
8626;SDS011;4351;51.422;6.794;2023-11-19T01:56:26;4.87;;;3.60;;
8626;SDS011;4351;51.422;6.794;2023-11-19T01:58:54;5.93;;;3.40;;
8626;SDS011;4351;51.422;6.794;2023-11-19T02:01:23;3.37;;;3.07;;
8626;SDS011;4351;51.422;6.794;2023-11-19T02:03:51;4.40;;;3.17;;
8626;SDS011;4351;51.422;6.794;2023-11-19T02:06:19;4.87;;;3.10;;
8626;SDS011;4351;51.422;6.794;2023-11-19T02:08:47;5.40;;;3.03;;
8626;SDS011;4351;51.422;6.794;2023-11-19T02:11:15;5.27;;;3.90;;
8626;SDS011;4351;51.422;6.794;2023-11-19T02:13:45;6.97;;;4.13;;
8626;SDS011;4351;51.422;6.794;2023-11-19T02:16:13;8.63;;;5.00;;
8626;SDS011;4351;51.422;6.794;2023-11-19T02:18:41;8.87;;;5.07;;
8626;SDS011;4351;51.422;6.794;2023-11-19T02:21:09;10.93;;;4.73;;
8626;SDS011;4351;51.422;6.794;2023-11-19T02:23:38;7.70;;;4.10;;
8626;SDS011;4351;51.422;6.794;2023-11-19T02:26:09;8.10;;;4.23;;
8626;SDS011;4351;51.422;6.794;2023-11-19T02:28:42;8.30;;;3.97;;
8626;SDS011;4351;51.422;6.794;2023-11-19T02:31:10;7.43;;;3.90;;
8626;SDS011;4351;51.422;6.794;2023-11-19T02:33:38;11.17;;;3.93;;
8626;SDS011;4351;51.422;6.794;2023-11-19T02:36:06;8.60;;;3.27;;
8626;SDS011;4351;51.422;6.794;2023-11-19T02:38:35;6.23;;;3.00;;
8626;SDS011;4351;51.422;6.794;2023-11-19T02:41:03;9.57;;;2.97;;
8626;SDS011;4351;51.422;6.794;2023-11-19T02:43:32;5.97;;;2.70;;
8626;SDS011;4351;51.422;6.794;2023-11-19T02:46:02;6.63;;;2.50;;
8626;SDS011;4351;51.422;6.794;2023-11-19T02:48:36;5.47;;;1.90;;
8626;SDS011;4351;51.422;6.794;2023-11-19T02:51:05;3.97;;;2.20;;
8626;SDS011;4351;51.422;6.794;2023-11-19T02:53:35;5.43;;;1.93;;
8626;SDS011;4351;51.422;6.794;2023-11-19T02:56:03;8.63;;;2.30;;
8626;SDS011;4351;51.422;6.794;2023-11-19T02:58:42;9.00;;;2.03;;
8626;SDS011;4351;51.422;6.794;2023-11-19T03:01:12;5.90;;;2.00;;
8626;SDS011;4351;51.422;6.794;2023-11-19T03:03:49;7.60;;;1.93;;
8626;SDS011;4351;51.422;6.794;2023-11-19T03:06:21;6.60;;;2.23;;
8626;SDS011;4351;51.422;6.794;2023-11-19T03:08:49;7.17;;;2.40;;
8626;SDS011;4351;51.422;6.794;2023-11-19T03:11:16;7.73;;;2.30;;
8626;SDS011;4351;51.422;6.794;2023-11-19T03:13:44;10.60;;;2.50;;
8626;SDS011;4351;51.422;6.794;2023-11-19T03:16:14;6.90;;;2.30;;
8626;SDS011;4351;51.422;6.794;2023-11-19T03:18:43;5.63;;;2.37;;
8626;SDS011;4351;51.422;6.794;2023-11-19T03:21:11;8.33;;;2.77;;
8626;SDS011;4351;51.422;6.794;2023-11-19T03:23:39;8.47;;;2.60;;
8626;SDS011;4351;51.422;6.794;2023-11-19T03:26:06;7.17;;;2.70;;
8626;SDS011;4351;51.422;6.794;2023-11-19T03:28:35;13.07;;;2.70;;
8626;SDS011;4351;51.422;6.794;2023-11-19T03:31:04;12.83;;;3.03;;
8626;SDS011;4351;51.422;6.794;2023-11-19T03:33:36;12.27;;;2.60;;
8626;SDS011;4351;51.422;6.794;2023-11-19T03:36:04;12.67;;;3.40;;
8626;SDS011;4351;51.422;6.794;2023-11-19T03:38:32;12.43;;;3.20;;
8626;SDS011;4351;51.422;6.794;2023-11-19T03:41:00;11.07;;;2.90;;
8626;SDS011;4351;51.422;6.794;2023-11-19T03:43:28;11.80;;;2.80;;
8626;SDS011;4351;51.422;6.794;2023-11-19T03:45:56;10.43;;;2.60;;
8626;SDS011;4351;51.422;6.794;2023-11-19T03:48:23;13.30;;;2.80;;
8626;SDS011;4351;51.422;6.794;2023-11-19T03:50:52;12.67;;;3.17;;
8626;SDS011;4351;51.422;6.794;2023-11-19T03:53:20;11.90;;;3.07;;
8626;SDS011;4351;51.422;6.794;2023-11-19T03:55:48;15.87;;;3.10;;
8626;SDS011;4351;51.422;6.794;2023-11-19T03:58:16;13.87;;;3.10;;
8626;SDS011;4351;51.422;6.794;2023-11-19T04:00:44;14.33;;;3.50;;
8626;SDS011;4351;51.422;6.794;2023-11-19T04:03:12;15.53;;;3.23;;
8626;SDS011;4351;51.422;6.794;2023-11-19T04:05:39;11.07;;;3.63;;
8626;SDS011;4351;51.422;6.794;2023-11-19T04:08:10;11.03;;;3.63;;
8626;SDS011;4351;51.422;6.794;2023-11-19T04:10:37;13.27;;;3.13;;
8626;SDS011;4351;51.422;6.794;2023-11-19T04:13:05;15.23;;;3.63;;
8626;SDS011;4351;51.422;6.794;2023-11-19T04:15:33;15.87;;;3.43;;
8626;SDS011;4351;51.422;6.794;2023-11-19T04:18:01;14.17;;;3.30;;
8626;SDS011;4351;51.422;6.794;2023-11-19T04:20:29;13.53;;;3.60;;
8626;SDS011;4351;51.422;6.794;2023-11-19T04:22:58;17.80;;;3.50;;
8626;SDS011;4351;51.422;6.794;2023-11-19T04:25:28;14.20;;;3.10;;
8626;SDS011;4351;51.422;6.794;2023-11-19T04:27:56;14.67;;;2.70;;
8626;SDS011;4351;51.422;6.794;2023-11-19T04:30:24;13.83;;;3.27;;
8626;SDS011;4351;51.422;6.794;2023-11-19T04:32:51;17.17;;;3.87;;
8626;SDS011;4351;51.422;6.794;2023-11-19T04:35:19;15.57;;;3.10;;
8626;SDS011;4351;51.422;6.794;2023-11-19T04:37:47;13.23;;;2.87;;
8626;SDS011;4351;51.422;6.794;2023-11-19T04:40:15;17.70;;;3.57;;
8626;SDS011;4351;51.422;6.794;2023-11-19T04:42:46;17.73;;;3.40;;
8626;SDS011;4351;51.422;6.794;2023-11-19T04:45:13;18.50;;;4.20;;
8626;SDS011;4351;51.422;6.794;2023-11-19T04:47:42;18.23;;;4.10;;
8626;SDS011;4351;51.422;6.794;2023-11-19T04:50:10;17.97;;;3.73;;
8626;SDS011;4351;51.422;6.794;2023-11-19T04:52:38;19.57;;;4.03;;
8626;SDS011;4351;51.422;6.794;2023-11-19T04:55:08;17.10;;;3.73;;
8626;SDS011;4351;51.422;6.794;2023-11-19T04:57:39;15.83;;;3.77;;
8626;SDS011;4351;51.422;6.794;2023-11-19T05:00:09;19.47;;;4.27;;
8626;SDS011;4351;51.422;6.794;2023-11-19T05:02:40;18.43;;;3.60;;
8626;SDS011;4351;51.422;6.794;2023-11-19T05:05:09;17.20;;;3.87;;
8626;SDS011;4351;51.422;6.794;2023-11-19T05:07:37;21.77;;;3.97;;
8626;SDS011;4351;51.422;6.794;2023-11-19T05:10:05;19.80;;;3.97;;
8626;SDS011;4351;51.422;6.794;2023-11-19T05:12:33;21.30;;;3.73;;
8626;SDS011;4351;51.422;6.794;2023-11-19T05:15:01;20.33;;;3.67;;
8626;SDS011;4351;51.422;6.794;2023-11-19T05:17:30;24.77;;;4.10;;
8626;SDS011;4351;51.422;6.794;2023-11-19T05:19:58;22.97;;;4.30;;
8626;SDS011;4351;51.422;6.794;2023-11-19T05:22:26;22.47;;;4.17;;
8626;SDS011;4351;51.422;6.794;2023-11-19T05:24:54;14.97;;;3.60;;
8626;SDS011;4351;51.422;6.794;2023-11-19T05:27:22;19.20;;;3.70;;
8626;SDS011;4351;51.422;6.794;2023-11-19T05:29:50;26.97;;;4.67;;
8626;SDS011;4351;51.422;6.794;2023-11-19T05:32:17;21.47;;;3.70;;
8626;SDS011;4351;51.422;6.794;2023-11-19T05:34:47;21.93;;;3.93;;
8626;SDS011;4351;51.422;6.794;2023-11-19T05:37:18;14.47;;;3.57;;
8626;SDS011;4351;51.422;6.794;2023-11-19T05:39:46;18.70;;;4.00;;
8626;SDS011;4351;51.422;6.794;2023-11-19T05:42:14;21.03;;;3.93;;
8626;SDS011;4351;51.422;6.794;2023-11-19T05:44:41;17.40;;;3.30;;
8626;SDS011;4351;51.422;6.794;2023-11-19T05:47:09;22.20;;;4.00;;
8626;SDS011;4351;51.422;6.794;2023-11-19T05:49:37;24.47;;;4.00;;
8626;SDS011;4351;51.422;6.794;2023-11-19T05:52:07;19.10;;;3.63;;
8626;SDS011;4351;51.422;6.794;2023-11-19T05:54:36;16.70;;;3.57;;
8626;SDS011;4351;51.422;6.794;2023-11-19T05:57:04;23.17;;;4.10;;
8626;SDS011;4351;51.422;6.794;2023-11-19T05:59:32;22.13;;;3.90;;
8626;SDS011;4351;51.422;6.794;2023-11-19T06:02:00;18.87;;;2.90;;
8626;SDS011;4351;51.422;6.794;2023-11-19T06:04:28;22.03;;;3.77;;
8626;SDS011;4351;51.422;6.794;2023-11-19T06:06:56;20.57;;;3.80;;
8626;SDS011;4351;51.422;6.794;2023-11-19T06:09:25;19.57;;;3.57;;
8626;SDS011;4351;51.422;6.794;2023-11-19T06:11:53;22.13;;;3.70;;
8626;SDS011;4351;51.422;6.794;2023-11-19T06:14:23;22.73;;;3.80;;
8626;SDS011;4351;51.422;6.794;2023-11-19T06:16:51;18.63;;;3.77;;
8626;SDS011;4351;51.422;6.794;2023-11-19T06:19:19;23.27;;;3.77;;
8626;SDS011;4351;51.422;6.794;2023-11-19T06:21:47;20.87;;;3.70;;
8626;SDS011;4351;51.422;6.794;2023-11-19T06:24:15;21.43;;;3.90;;
8626;SDS011;4351;51.422;6.794;2023-11-19T06:26:44;17.47;;;4.00;;
8626;SDS011;4351;51.422;6.794;2023-11-19T06:29:12;25.63;;;4.57;;
8626;SDS011;4351;51.422;6.794;2023-11-19T06:31:44;24.90;;;4.63;;
8626;SDS011;4351;51.422;6.794;2023-11-19T06:34:13;25.03;;;4.27;;
8626;SDS011;4351;51.422;6.794;2023-11-19T06:36:41;22.80;;;4.50;;
8626;SDS011;4351;51.422;6.794;2023-11-19T06:39:10;16.97;;;3.60;;
8626;SDS011;4351;51.422;6.794;2023-11-19T06:41:38;20.43;;;3.93;;
8626;SDS011;4351;51.422;6.794;2023-11-19T06:44:07;29.43;;;4.03;;
8626;SDS011;4351;51.422;6.794;2023-11-19T06:46:35;24.90;;;4.00;;
8626;SDS011;4351;51.422;6.794;2023-11-19T06:49:03;28.87;;;4.70;;
8626;SDS011;4351;51.422;6.794;2023-11-19T06:51:31;22.70;;;3.90;;
8626;SDS011;4351;51.422;6.794;2023-11-19T06:53:58;17.47;;;4.00;;
8626;SDS011;4351;51.422;6.794;2023-11-19T06:56:27;28.13;;;3.60;;
8626;SDS011;4351;51.422;6.794;2023-11-19T06:58:54;22.27;;;4.00;;
8626;SDS011;4351;51.422;6.794;2023-11-19T07:01:23;22.37;;;3.53;;
8626;SDS011;4351;51.422;6.794;2023-11-19T07:03:51;21.23;;;3.80;;
8626;SDS011;4351;51.422;6.794;2023-11-19T07:06:19;19.83;;;3.70;;
8626;SDS011;4351;51.422;6.794;2023-11-19T07:09:00;23.87;;;4.47;;
8626;SDS011;4351;51.422;6.794;2023-11-19T07:11:35;23.10;;;3.83;;
8626;SDS011;4351;51.422;6.794;2023-11-19T07:14:05;27.50;;;4.77;;
8626;SDS011;4351;51.422;6.794;2023-11-19T07:16:35;22.83;;;3.93;;
8626;SDS011;4351;51.422;6.794;2023-11-19T07:19:04;21.00;;;4.13;;
8626;SDS011;4351;51.422;6.794;2023-11-19T07:21:32;20.80;;;4.10;;
8626;SDS011;4351;51.422;6.794;2023-11-19T07:24:00;21.20;;;3.97;;
8626;SDS011;4351;51.422;6.794;2023-11-19T07:26:28;21.67;;;4.10;;
8626;SDS011;4351;51.422;6.794;2023-11-19T07:28:56;20.97;;;4.00;;
8626;SDS011;4351;51.422;6.794;2023-11-19T07:31:24;25.77;;;4.53;;
8626;SDS011;4351;51.422;6.794;2023-11-19T07:33:53;22.73;;;4.37;;
8626;SDS011;4351;51.422;6.794;2023-11-19T07:36:21;23.40;;;4.70;;
8626;SDS011;4351;51.422;6.794;2023-11-19T07:38:49;20.27;;;5.17;;
8626;SDS011;4351;51.422;6.794;2023-11-19T07:41:17;22.13;;;4.53;;
8626;SDS011;4351;51.422;6.794;2023-11-19T07:43:44;22.47;;;4.13;;
8626;SDS011;4351;51.422;6.794;2023-11-19T07:46:13;20.53;;;4.30;;
8626;SDS011;4351;51.422;6.794;2023-11-19T07:48:41;26.80;;;4.87;;
8626;SDS011;4351;51.422;6.794;2023-11-19T07:51:12;19.87;;;4.50;;
8626;SDS011;4351;51.422;6.794;2023-11-19T07:53:39;21.67;;;3.80;;
8626;SDS011;4351;51.422;6.794;2023-11-19T07:56:07;20.33;;;4.60;;
8626;SDS011;4351;51.422;6.794;2023-11-19T07:58:35;24.40;;;4.37;;
8626;SDS011;4351;51.422;6.794;2023-11-19T08:01:04;27.67;;;5.13;;
8626;SDS011;4351;51.422;6.794;2023-11-19T08:03:32;23.73;;;4.67;;
8626;SDS011;4351;51.422;6.794;2023-11-19T08:06:01;21.53;;;4.27;;
8626;SDS011;4351;51.422;6.794;2023-11-19T08:08:31;25.17;;;4.40;;
8626;SDS011;4351;51.422;6.794;2023-11-19T08:11:00;22.00;;;4.47;;
8626;SDS011;4351;51.422;6.794;2023-11-19T08:13:27;26.77;;;5.00;;
8626;SDS011;4351;51.422;6.794;2023-11-19T08:15:55;22.13;;;4.43;;
8626;SDS011;4351;51.422;6.794;2023-11-19T08:18:24;18.73;;;3.93;;
8626;SDS011;4351;51.422;6.794;2023-11-19T08:20:52;19.00;;;3.97;;
8626;SDS011;4351;51.422;6.794;2023-11-19T08:23:20;21.43;;;4.03;;
8626;SDS011;4351;51.422;6.794;2023-11-19T08:25:51;30.60;;;5.13;;
8626;SDS011;4351;51.422;6.794;2023-11-19T08:28:19;28.73;;;4.80;;
8626;SDS011;4351;51.422;6.794;2023-11-19T08:30:47;29.50;;;5.57;;
8626;SDS011;4351;51.422;6.794;2023-11-19T08:33:14;25.90;;;4.73;;
8626;SDS011;4351;51.422;6.794;2023-11-19T08:35:43;25.23;;;4.83;;
8626;SDS011;4351;51.422;6.794;2023-11-19T08:38:11;23.87;;;4.80;;
8626;SDS011;4351;51.422;6.794;2023-11-19T08:40:39;23.63;;;4.33;;
8626;SDS011;4351;51.422;6.794;2023-11-19T08:43:08;31.57;;;5.50;;
8626;SDS011;4351;51.422;6.794;2023-11-19T08:45:36;22.67;;;3.77;;
8626;SDS011;4351;51.422;6.794;2023-11-19T08:48:04;22.57;;;4.13;;
8626;SDS011;4351;51.422;6.794;2023-11-19T08:50:30;16.20;;;4.27;;
8626;SDS011;4351;51.422;6.794;2023-11-19T08:52:58;21.33;;;3.90;;
8626;SDS011;4351;51.422;6.794;2023-11-19T08:55:26;28.93;;;4.57;;
8626;SDS011;4351;51.422;6.794;2023-11-19T08:57:54;22.77;;;3.73;;
8626;SDS011;4351;51.422;6.794;2023-11-19T09:00:24;19.83;;;3.93;;
8626;SDS011;4351;51.422;6.794;2023-11-19T09:02:52;31.67;;;4.77;;
8626;SDS011;4351;51.422;6.794;2023-11-19T09:05:20;25.37;;;4.80;;
8626;SDS011;4351;51.422;6.794;2023-11-19T09:07:48;24.50;;;4.83;;
8626;SDS011;4351;51.422;6.794;2023-11-19T09:10:16;25.53;;;3.90;;
8626;SDS011;4351;51.422;6.794;2023-11-19T09:12:44;25.93;;;4.40;;
8626;SDS011;4351;51.422;6.794;2023-11-19T09:15:11;26.30;;;4.00;;
8626;SDS011;4351;51.422;6.794;2023-11-19T09:17:41;20.03;;;3.83;;
8626;SDS011;4351;51.422;6.794;2023-11-19T09:20:09;26.10;;;4.27;;
8626;SDS011;4351;51.422;6.794;2023-11-19T09:22:41;25.20;;;4.30;;
8626;SDS011;4351;51.422;6.794;2023-11-19T09:25:09;26.50;;;4.97;;
8626;SDS011;4351;51.422;6.794;2023-11-19T09:27:37;28.23;;;4.47;;
8626;SDS011;4351;51.422;6.794;2023-11-19T09:30:05;26.40;;;4.20;;
8626;SDS011;4351;51.422;6.794;2023-11-19T09:32:34;24.83;;;4.23;;
8626;SDS011;4351;51.422;6.794;2023-11-19T09:35:04;19.90;;;4.20;;
8626;SDS011;4351;51.422;6.794;2023-11-19T09:37:32;20.37;;;3.80;;
8626;SDS011;4351;51.422;6.794;2023-11-19T09:40:00;24.10;;;4.10;;
8626;SDS011;4351;51.422;6.794;2023-11-19T09:42:28;29.43;;;4.53;;
8626;SDS011;4351;51.422;6.794;2023-11-19T09:44:55;25.53;;;4.60;;
8626;SDS011;4351;51.422;6.794;2023-11-19T09:47:24;22.03;;;4.10;;
8626;SDS011;4351;51.422;6.794;2023-11-19T09:49:54;24.63;;;4.37;;
8626;SDS011;4351;51.422;6.794;2023-11-19T09:52:26;23.30;;;4.33;;
8626;SDS011;4351;51.422;6.794;2023-11-19T09:54:53;24.90;;;4.73;;
8626;SDS011;4351;51.422;6.794;2023-11-19T09:57:21;30.90;;;4.97;;
8626;SDS011;4351;51.422;6.794;2023-11-19T09:59:48;25.00;;;4.30;;
8626;SDS011;4351;51.422;6.794;2023-11-19T10:02:17;22.90;;;4.63;;
8626;SDS011;4351;51.422;6.794;2023-11-19T10:04:46;24.90;;;5.10;;
8626;SDS011;4351;51.422;6.794;2023-11-19T10:07:14;30.83;;;4.57;;
8626;SDS011;4351;51.422;6.794;2023-11-19T10:09:43;27.27;;;4.80;;
8626;SDS011;4351;51.422;6.794;2023-11-19T10:12:10;26.67;;;4.33;;
8626;SDS011;4351;51.422;6.794;2023-11-19T10:14:38;23.83;;;4.20;;
8626;SDS011;4351;51.422;6.794;2023-11-19T10:17:07;25.77;;;3.77;;
8626;SDS011;4351;51.422;6.794;2023-11-19T10:19:35;24.43;;;5.10;;
8626;SDS011;4351;51.422;6.794;2023-11-19T10:22:04;24.90;;;4.57;;
8626;SDS011;4351;51.422;6.794;2023-11-19T10:24:32;30.03;;;4.70;;
8626;SDS011;4351;51.422;6.794;2023-11-19T10:27:07;21.93;;;4.03;;
8626;SDS011;4351;51.422;6.794;2023-11-19T10:29:36;25.73;;;4.97;;
8626;SDS011;4351;51.422;6.794;2023-11-19T10:32:03;23.83;;;4.57;;
8626;SDS011;4351;51.422;6.794;2023-11-19T10:34:51;21.50;;;4.70;;
8626;SDS011;4351;51.422;6.794;2023-11-19T10:37:28;25.27;;;4.50;;
8626;SDS011;4351;51.422;6.794;2023-11-19T10:39:58;25.93;;;4.50;;
8626;SDS011;4351;51.422;6.794;2023-11-19T10:42:27;27.60;;;4.43;;
8626;SDS011;4351;51.422;6.794;2023-11-19T10:44:55;24.83;;;4.03;;
8626;SDS011;4351;51.422;6.794;2023-11-19T10:47:22;21.97;;;4.23;;
8626;SDS011;4351;51.422;6.794;2023-11-19T10:49:53;20.93;;;3.50;;
8626;SDS011;4351;51.422;6.794;2023-11-19T10:52:22;27.27;;;4.20;;
8626;SDS011;4351;51.422;6.794;2023-11-19T10:54:50;20.83;;;3.47;;
8626;SDS011;4351;51.422;6.794;2023-11-19T10:57:19;19.37;;;4.27;;
8626;SDS011;4351;51.422;6.794;2023-11-19T10:59:51;26.13;;;4.47;;
8626;SDS011;4351;51.422;6.794;2023-11-19T11:02:21;22.97;;;4.40;;
8626;SDS011;4351;51.422;6.794;2023-11-19T11:04:50;22.67;;;4.00;;
8626;SDS011;4351;51.422;6.794;2023-11-19T11:07:19;22.53;;;4.20;;
8626;SDS011;4351;51.422;6.794;2023-11-19T11:10:01;17.87;;;4.03;;
8626;SDS011;4351;51.422;6.794;2023-11-19T11:12:29;26.30;;;4.13;;
8626;SDS011;4351;51.422;6.794;2023-11-19T11:15:02;21.40;;;3.97;;
8626;SDS011;4351;51.422;6.794;2023-11-19T11:17:30;25.03;;;4.33;;
8626;SDS011;4351;51.422;6.794;2023-11-19T11:19:59;23.57;;;3.73;;
8626;SDS011;4351;51.422;6.794;2023-11-19T11:22:27;20.00;;;4.10;;
8626;SDS011;4351;51.422;6.794;2023-11-19T11:25:03;22.30;;;4.27;;
8626;SDS011;4351;51.422;6.794;2023-11-19T11:27:41;19.73;;;3.67;;
8626;SDS011;4351;51.422;6.794;2023-11-19T11:30:17;23.27;;;4.10;;
8626;SDS011;4351;51.422;6.794;2023-11-19T11:32:50;15.00;;;3.47;;
8626;SDS011;4351;51.422;6.794;2023-11-19T11:35:25;19.90;;;3.97;;
8626;SDS011;4351;51.422;6.794;2023-11-19T11:38:06;20.97;;;3.67;;
8626;SDS011;4351;51.422;6.794;2023-11-19T11:40:34;21.57;;;3.70;;
8626;SDS011;4351;51.422;6.794;2023-11-19T11:43:03;20.27;;;4.13;;
8626;SDS011;4351;51.422;6.794;2023-11-19T11:45:36;16.53;;;3.70;;
8626;SDS011;4351;51.422;6.794;2023-11-19T11:48:08;16.07;;;4.17;;
8626;SDS011;4351;51.422;6.794;2023-11-19T11:50:47;19.57;;;3.90;;
8626;SDS011;4351;51.422;6.794;2023-11-19T11:53:20;20.90;;;3.80;;
8626;SDS011;4351;51.422;6.794;2023-11-19T11:55:56;20.83;;;3.83;;
8626;SDS011;4351;51.422;6.794;2023-11-19T11:58:26;19.17;;;3.87;;
8626;SDS011;4351;51.422;6.794;2023-11-19T12:00:56;15.90;;;3.43;;
8626;SDS011;4351;51.422;6.794;2023-11-19T12:03:26;22.17;;;3.77;;
8626;SDS011;4351;51.422;6.794;2023-11-19T12:05:54;15.47;;;3.40;;
8626;SDS011;4351;51.422;6.794;2023-11-19T12:08:24;19.83;;;3.60;;
8626;SDS011;4351;51.422;6.794;2023-11-19T12:10:53;18.50;;;4.33;;
8626;SDS011;4351;51.422;6.794;2023-11-19T12:13:20;19.70;;;3.97;;
8626;SDS011;4351;51.422;6.794;2023-11-19T12:16:08;18.10;;;3.40;;
8626;SDS011;4351;51.422;6.794;2023-11-19T12:18:36;21.40;;;3.63;;
8626;SDS011;4351;51.422;6.794;2023-11-19T12:21:06;17.17;;;3.80;;
8626;SDS011;4351;51.422;6.794;2023-11-19T12:23:42;22.67;;;4.23;;
8626;SDS011;4351;51.422;6.794;2023-11-19T12:26:20;16.17;;;3.77;;
8626;SDS011;4351;51.422;6.794;2023-11-19T12:28:56;18.37;;;3.30;;
8626;SDS011;4351;51.422;6.794;2023-11-19T12:31:25;23.40;;;4.10;;
8626;SDS011;4351;51.422;6.794;2023-11-19T12:33:53;17.57;;;3.40;;
8626;SDS011;4351;51.422;6.794;2023-11-19T12:36:21;18.27;;;3.53;;
8626;SDS011;4351;51.422;6.794;2023-11-19T12:38:49;17.80;;;3.70;;
8626;SDS011;4351;51.422;6.794;2023-11-19T12:41:17;16.60;;;3.60;;
8626;SDS011;4351;51.422;6.794;2023-11-19T12:43:49;14.80;;;2.70;;
8626;SDS011;4351;51.422;6.794;2023-11-19T12:46:17;15.53;;;3.47;;
8626;SDS011;4351;51.422;6.794;2023-11-19T12:48:47;14.17;;;3.10;;
8626;SDS011;4351;51.422;6.794;2023-11-19T12:51:16;17.17;;;3.83;;
8626;SDS011;4351;51.422;6.794;2023-11-19T12:53:47;20.87;;;4.37;;
8626;SDS011;4351;51.422;6.794;2023-11-19T12:56:16;17.77;;;3.83;;
8626;SDS011;4351;51.422;6.794;2023-11-19T12:58:44;17.13;;;4.30;;
8626;SDS011;4351;51.422;6.794;2023-11-19T13:01:15;18.10;;;4.20;;
8626;SDS011;4351;51.422;6.794;2023-11-19T13:03:43;13.47;;;2.97;;
8626;SDS011;4351;51.422;6.794;2023-11-19T13:06:12;14.60;;;3.37;;
8626;SDS011;4351;51.422;6.794;2023-11-19T13:08:42;12.50;;;2.90;;
8626;SDS011;4351;51.422;6.794;2023-11-19T13:11:11;16.13;;;3.30;;
8626;SDS011;4351;51.422;6.794;2023-11-19T13:13:54;12.17;;;2.80;;
8626;SDS011;4351;51.422;6.794;2023-11-19T13:16:22;15.70;;;3.03;;
8626;SDS011;4351;51.422;6.794;2023-11-19T13:18:50;17.37;;;4.03;;
8626;SDS011;4351;51.422;6.794;2023-11-19T13:21:19;20.27;;;4.63;;
8626;SDS011;4351;51.422;6.794;2023-11-19T13:23:47;21.37;;;4.93;;
8626;SDS011;4351;51.422;6.794;2023-11-19T13:26:14;21.57;;;4.13;;
8626;SDS011;4351;51.422;6.794;2023-11-19T13:28:42;15.27;;;3.63;;
8626;SDS011;4351;51.422;6.794;2023-11-19T13:31:10;20.57;;;3.53;;
8626;SDS011;4351;51.422;6.794;2023-11-19T13:33:37;21.40;;;3.57;;
8626;SDS011;4351;51.422;6.794;2023-11-19T13:36:05;16.73;;;3.53;;
8626;SDS011;4351;51.422;6.794;2023-11-19T13:38:35;18.63;;;3.57;;
8626;SDS011;4351;51.422;6.794;2023-11-19T13:41:03;22.80;;;4.27;;
8626;SDS011;4351;51.422;6.794;2023-11-19T13:43:32;17.57;;;3.70;;
8626;SDS011;4351;51.422;6.794;2023-11-19T13:46:00;25.33;;;3.90;;
8626;SDS011;4351;51.422;6.794;2023-11-19T13:48:27;17.30;;;3.80;;
8626;SDS011;4351;51.422;6.794;2023-11-19T13:50:56;20.17;;;4.10;;
8626;SDS011;4351;51.422;6.794;2023-11-19T13:53:23;21.23;;;3.47;;
8626;SDS011;4351;51.422;6.794;2023-11-19T13:55:53;17.00;;;3.77;;
8626;SDS011;4351;51.422;6.794;2023-11-19T13:58:20;18.70;;;3.70;;
8626;SDS011;4351;51.422;6.794;2023-11-19T14:00:48;16.70;;;3.27;;
8626;SDS011;4351;51.422;6.794;2023-11-19T14:03:17;16.77;;;3.40;;
8626;SDS011;4351;51.422;6.794;2023-11-19T14:05:45;16.83;;;3.40;;
8626;SDS011;4351;51.422;6.794;2023-11-19T14:08:12;18.90;;;3.33;;
8626;SDS011;4351;51.422;6.794;2023-11-19T14:10:52;16.80;;;3.23;;
8626;SDS011;4351;51.422;6.794;2023-11-19T14:13:22;15.17;;;2.93;;
8626;SDS011;4351;51.422;6.794;2023-11-19T14:15:50;17.67;;;3.40;;
8626;SDS011;4351;51.422;6.794;2023-11-19T14:18:18;21.90;;;4.00;;
8626;SDS011;4351;51.422;6.794;2023-11-19T14:20:46;16.87;;;3.63;;
8626;SDS011;4351;51.422;6.794;2023-11-19T14:23:14;19.60;;;4.23;;
8626;SDS011;4351;51.422;6.794;2023-11-19T14:25:42;20.53;;;4.17;;
8626;SDS011;4351;51.422;6.794;2023-11-19T14:28:12;20.00;;;4.53;;
8626;SDS011;4351;51.422;6.794;2023-11-19T14:30:39;17.37;;;3.60;;
8626;SDS011;4351;51.422;6.794;2023-11-19T14:33:08;20.50;;;3.20;;
8626;SDS011;4351;51.422;6.794;2023-11-19T14:35:35;17.13;;;3.50;;
8626;SDS011;4351;51.422;6.794;2023-11-19T14:38:03;19.80;;;3.57;;
8626;SDS011;4351;51.422;6.794;2023-11-19T14:40:33;16.03;;;3.33;;
8626;SDS011;4351;51.422;6.794;2023-11-19T14:43:04;14.63;;;2.87;;
8626;SDS011;4351;51.422;6.794;2023-11-19T14:45:34;17.00;;;3.27;;
8626;SDS011;4351;51.422;6.794;2023-11-19T14:48:13;15.57;;;3.60;;
8626;SDS011;4351;51.422;6.794;2023-11-19T14:50:41;16.30;;;3.17;;
8626;SDS011;4351;51.422;6.794;2023-11-19T14:53:08;18.07;;;3.63;;
8626;SDS011;4351;51.422;6.794;2023-11-19T14:55:36;16.10;;;3.23;;
8626;SDS011;4351;51.422;6.794;2023-11-19T14:58:04;15.90;;;3.80;;
8626;SDS011;4351;51.422;6.794;2023-11-19T15:00:38;12.93;;;3.17;;
8626;SDS011;4351;51.422;6.794;2023-11-19T15:03:06;15.83;;;3.20;;
8626;SDS011;4351;51.422;6.794;2023-11-19T15:05:35;18.80;;;3.17;;
8626;SDS011;4351;51.422;6.794;2023-11-19T15:08:03;17.43;;;3.23;;
8626;SDS011;4351;51.422;6.794;2023-11-19T15:10:31;12.07;;;2.60;;
8626;SDS011;4351;51.422;6.794;2023-11-19T15:12:58;22.40;;;4.17;;
8626;SDS011;4351;51.422;6.794;2023-11-19T15:15:26;14.17;;;3.13;;
8626;SDS011;4351;51.422;6.794;2023-11-19T15:17:59;17.13;;;3.90;;